createdAt,value
2018-02-15T00:01:48.778Z,3.15
2018-02-15T00:04:17.185Z,3.61
2018-02-15T00:06:45.558Z,2.88
2018-02-15T00:09:14.293Z,3.26
2018-02-15T00:11:42.661Z,2.89
2018-02-15T00:14:11.028Z,2.52
2018-02-15T00:16:39.391Z,2.91
2018-02-15T00:19:07.766Z,3.28
2018-02-15T00:21:36.821Z,3.02
2018-02-15T00:24:05.187Z,3.35
2018-02-15T00:26:33.558Z,2.66
2018-02-15T00:29:01.944Z,2.55
2018-02-15T00:31:30.298Z,3.21
2018-02-15T00:33:58.719Z,2.78
2018-02-15T00:36:27.085Z,2.76
2018-02-15T00:38:55.647Z,3.12
2018-02-15T00:41:24.026Z,2.28
2018-02-15T00:43:52.386Z,2.97
2018-02-15T00:46:20.779Z,2.67
2018-02-15T00:48:49.153Z,3.10
2018-02-15T00:51:17.680Z,2.62
2018-02-15T00:53:46.083Z,2.53
2018-02-15T00:56:14.610Z,3.26
2018-02-15T00:58:42.963Z,2.95
2018-02-15T01:01:11.341Z,2.98
2018-02-15T01:03:39.709Z,2.88
2018-02-15T01:06:08.105Z,2.85
2018-02-15T01:08:36.522Z,2.58
2018-02-15T01:11:04.891Z,2.27
2018-02-15T01:13:33.275Z,2.74
2018-02-15T01:16:01.630Z,2.51
2018-02-15T01:18:29.996Z,2.73
2018-02-15T01:20:58.403Z,3.30
2018-02-15T01:23:26.773Z,2.15
2018-02-15T01:25:55.149Z,2.82
2018-02-15T01:28:23.518Z,2.76
2018-02-15T01:30:51.951Z,2.67
2018-02-15T01:33:20.327Z,2.40
2018-02-15T01:35:48.806Z,2.89
2018-02-15T01:38:17.238Z,2.47
2018-02-15T01:40:45.610Z,2.82
2018-02-15T01:43:14.148Z,2.20
2018-02-15T01:45:42.505Z,2.29
2018-02-15T01:48:10.892Z,2.62
2018-02-15T01:50:39.314Z,2.00
2018-02-15T01:53:07.761Z,2.10
2018-02-15T01:55:36.126Z,2.23
2018-02-15T01:58:04.498Z,2.02
2018-02-15T02:00:32.923Z,2.23
2018-02-15T02:03:01.287Z,2.56
2018-02-15T02:05:29.692Z,3.10
2018-02-15T02:07:58.084Z,3.05
2018-02-15T02:10:26.480Z,3.35
2018-02-15T02:12:55.001Z,2.87
2018-02-15T02:15:23.364Z,2.53
2018-02-15T02:17:51.793Z,3.16
2018-02-15T02:20:20.151Z,2.74
2018-02-15T02:22:48.515Z,2.78
2018-02-15T02:25:16.977Z,2.81
2018-02-15T02:27:45.345Z,2.66
2018-02-15T02:30:13.816Z,2.66
2018-02-15T02:32:42.241Z,2.42
2018-02-15T02:35:10.633Z,3.16
2018-02-15T02:37:39.026Z,2.66
2018-02-15T02:40:07.395Z,3.07
2018-02-15T02:42:35.813Z,2.63
2018-02-15T02:45:04.315Z,2.26
2018-02-15T02:47:32.910Z,2.51
2018-02-15T02:50:01.283Z,2.42
2018-02-15T02:52:29.655Z,2.35
2018-02-15T02:54:58.059Z,1.99
2018-02-15T02:57:26.453Z,2.22
2018-02-15T02:59:54.906Z,2.44
2018-02-15T03:02:23.291Z,2.41
2018-02-15T03:04:52.690Z,3.01
2018-02-15T03:07:21.207Z,2.47
2018-02-15T03:09:49.583Z,2.52
2018-02-15T03:12:17.990Z,2.83
2018-02-15T03:14:46.473Z,2.89
2018-02-15T03:17:14.920Z,2.60
2018-02-15T03:19:43.306Z,2.48
2018-02-15T03:22:11.720Z,2.51
2018-02-15T03:24:40.092Z,2.99
2018-02-15T03:27:08.466Z,2.26
2018-02-15T03:29:36.977Z,2.89
2018-02-15T03:32:05.374Z,2.84
2018-02-15T03:34:33.775Z,2.49
2018-02-15T03:37:02.187Z,2.94
2018-02-15T03:39:30.562Z,2.45
2018-02-15T03:41:58.967Z,3.16
2018-02-15T03:44:27.348Z,2.73
2018-02-15T03:46:55.823Z,2.73
2018-02-15T03:49:24.216Z,2.60
2018-02-15T03:51:52.721Z,2.84
2018-02-15T03:54:21.138Z,2.73
2018-02-15T03:56:49.542Z,2.53
2018-02-15T03:59:17.909Z,3.03
2018-02-15T04:01:46.279Z,2.61
2018-02-15T04:04:14.643Z,3.19
2018-02-15T04:06:43.094Z,2.60
2018-02-15T04:09:11.471Z,2.73
2018-02-15T04:11:39.836Z,2.66
2018-02-15T04:14:08.314Z,2.96
2018-02-15T04:16:36.704Z,3.10
2018-02-15T04:19:05.114Z,3.12
2018-02-15T04:21:33.479Z,3.23
2018-02-15T04:24:01.861Z,3.57
2018-02-15T04:26:30.367Z,3.09
2018-02-15T04:28:58.814Z,3.17
2018-02-15T04:31:27.231Z,3.44
2018-02-15T04:33:55.641Z,2.60
2018-02-15T04:36:24.038Z,3.10
2018-02-15T04:38:52.400Z,2.76
2018-02-15T04:41:20.806Z,3.31
2018-02-15T04:43:49.171Z,3.79
2018-02-15T04:46:17.655Z,3.54
2018-02-15T04:48:46.030Z,3.90
2018-02-15T04:51:14.472Z,3.55
2018-02-15T04:53:42.850Z,3.48
2018-02-15T04:56:11.218Z,3.29
2018-02-15T04:58:39.623Z,3.80
2018-02-15T05:01:08.002Z,3.43
2018-02-15T05:03:36.408Z,3.77
2018-02-15T05:06:04.779Z,3.70
2018-02-15T05:08:33.153Z,2.98
2018-02-15T05:11:01.530Z,2.99
2018-02-15T05:13:29.951Z,3.40
2018-02-15T05:15:58.367Z,3.63
2018-02-15T05:18:26.869Z,4.15
2018-02-15T05:20:55.232Z,4.25
2018-02-15T05:23:23.602Z,4.11
2018-02-15T05:25:51.987Z,4.23
2018-02-15T05:28:20.379Z,5.45
2018-02-15T05:30:48.795Z,3.90
2018-02-15T05:33:17.156Z,3.79
2018-02-15T05:35:45.528Z,4.13
2018-02-15T05:38:14.013Z,4.66
2018-02-15T05:40:42.374Z,3.81
2018-02-15T05:43:10.893Z,3.07
2018-02-15T05:45:39.300Z,3.23
2018-02-15T05:48:07.733Z,4.31
2018-02-15T05:50:47.015Z,4.09
2018-02-15T05:53:15.437Z,3.48
2018-02-15T05:55:43.832Z,3.06
2018-02-15T05:58:12.203Z,2.50
2018-02-15T06:00:40.707Z,3.70
2018-02-15T06:03:09.244Z,3.51
2018-02-15T06:05:37.619Z,2.62
2018-02-15T06:08:05.985Z,2.86
2018-02-15T06:10:34.384Z,2.84
2018-02-15T06:13:02.764Z,2.77
2018-02-15T06:15:31.192Z,3.18
2018-02-15T06:17:59.574Z,3.15
2018-02-15T06:20:28.072Z,3.35
2018-02-15T06:22:56.448Z,3.31
2018-02-15T06:25:24.891Z,2.56
2018-02-15T06:27:53.314Z,3.32
2018-02-15T06:30:21.823Z,2.44
2018-02-15T06:32:50.257Z,2.38
2018-02-15T06:35:18.813Z,2.52
2018-02-15T06:37:47.371Z,2.56
2018-02-15T06:40:15.803Z,2.71
2018-02-15T06:42:44.261Z,2.85
2018-02-15T06:45:12.683Z,2.65
2018-02-15T06:47:41.071Z,3.43
2018-02-15T06:50:09.560Z,3.01
2018-02-15T06:52:38.101Z,2.82
2018-02-15T06:55:06.632Z,2.60
2018-02-15T06:57:35.115Z,2.88
2018-02-15T07:00:03.531Z,2.27
2018-02-15T07:02:31.928Z,2.80
2018-02-15T07:05:00.304Z,1.94
2018-02-15T07:07:28.781Z,1.66
2018-02-15T07:09:57.146Z,1.83
2018-02-15T07:12:25.528Z,2.10
2018-02-15T07:14:53.981Z,1.55
2018-02-15T07:17:22.412Z,1.41
2018-02-15T07:19:50.869Z,1.60
2018-02-15T07:22:19.296Z,1.86
2018-02-15T07:24:47.626Z,2.43
2018-02-15T07:27:15.999Z,2.14
2018-02-15T07:29:44.365Z,2.49
2018-02-15T07:32:13.048Z,2.17
2018-02-15T07:34:41.515Z,2.21
2018-02-15T07:37:09.966Z,2.70
2018-02-15T07:39:38.349Z,2.72
2018-02-15T07:42:06.848Z,2.15
2018-02-15T07:44:35.215Z,2.68
2018-02-15T07:47:03.673Z,2.28
2018-02-15T07:49:32.369Z,2.39
2018-02-15T07:52:00.756Z,2.09
2018-02-15T07:54:29.225Z,1.95
2018-02-15T07:56:57.901Z,2.33
2018-02-15T07:59:26.285Z,2.79
2018-02-15T08:01:54.747Z,2.19
2018-02-15T08:04:23.116Z,2.11
2018-02-15T08:06:51.579Z,2.31
2018-02-15T08:09:19.951Z,1.71
2018-02-15T08:11:48.337Z,1.94
2018-02-15T08:14:16.773Z,2.08
2018-02-15T08:16:45.143Z,1.99
2018-02-15T08:19:13.547Z,1.90
2018-02-15T08:21:41.927Z,1.66
2018-02-15T08:24:10.392Z,3.13
2018-02-15T08:26:38.832Z,2.52
2018-02-15T08:29:07.325Z,2.69
2018-02-15T08:31:35.849Z,2.67
2018-02-15T08:34:04.332Z,2.39
2018-02-15T08:36:32.772Z,3.20
2018-02-15T08:39:01.161Z,3.01
2018-02-15T08:41:29.581Z,2.96
2018-02-15T08:43:57.949Z,2.92
2018-02-15T08:46:26.315Z,3.23
2018-02-15T08:48:54.772Z,3.60
2018-02-15T08:51:23.241Z,3.72
2018-02-15T08:53:51.632Z,3.63
2018-02-15T08:56:19.998Z,3.77
2018-02-15T08:58:48.362Z,4.89
2018-02-15T09:01:16.737Z,3.83
2018-02-15T09:03:45.117Z,3.40
2018-02-15T09:06:13.502Z,4.40
2018-02-15T09:08:41.900Z,4.12
2018-02-15T09:11:10.352Z,4.82
2018-02-15T09:13:38.733Z,3.90
2018-02-15T09:16:07.144Z,3.22
2018-02-15T09:18:35.540Z,3.27
2018-02-15T09:21:04.026Z,4.29
2018-02-15T09:23:32.559Z,4.13
2018-02-15T09:26:00.990Z,4.70
2018-02-15T09:28:29.757Z,4.05
2018-02-15T09:30:58.533Z,4.46
2018-02-15T09:33:27.085Z,4.43
2018-02-15T09:35:55.575Z,4.46
2018-02-15T09:38:25.133Z,3.64
2018-02-15T09:40:53.530Z,4.89
2018-02-15T09:43:21.916Z,4.35
2018-02-15T09:45:50.294Z,3.86
2018-02-15T09:48:18.737Z,3.83
2018-02-15T09:50:47.497Z,4.41
2018-02-15T09:53:16.051Z,4.77
2018-02-15T09:55:44.475Z,4.26
2018-02-15T09:58:13.097Z,2.96
2018-02-15T10:00:41.924Z,3.24
2018-02-15T10:03:11.035Z,2.82
2018-02-15T10:05:39.857Z,3.52
2018-02-15T10:08:08.563Z,3.52
2018-02-15T10:10:37.051Z,4.71
2018-02-15T10:13:05.647Z,4.65
2018-02-15T10:15:34.054Z,3.79
2018-02-15T10:18:02.438Z,4.78
2018-02-15T10:20:30.808Z,4.15
2018-02-15T10:22:59.185Z,4.87
2018-02-15T10:25:27.555Z,5.26
2018-02-15T10:27:55.921Z,5.11
2018-02-15T10:30:24.400Z,5.77
2018-02-15T10:32:53.207Z,5.89
2018-02-15T10:35:21.752Z,5.78
2018-02-15T10:37:50.131Z,5.90
2018-02-15T10:40:18.568Z,7.15
2018-02-15T10:42:46.959Z,6.52
2018-02-15T10:45:15.357Z,5.42
2018-02-15T10:47:43.830Z,5.10
2018-02-15T10:50:12.319Z,5.43
2018-02-15T10:52:40.697Z,5.10
2018-02-15T10:55:09.067Z,6.19
2018-02-15T10:57:37.430Z,6.36
2018-02-15T11:00:05.806Z,5.65
2018-02-15T11:02:34.202Z,4.68
2018-02-15T11:05:08.133Z,5.41
2018-02-15T11:07:36.497Z,6.23
2018-02-15T11:10:04.864Z,6.39
2018-02-15T11:12:33.248Z,6.71
2018-02-15T11:15:01.705Z,6.11
2018-02-15T11:17:30.074Z,6.57
2018-02-15T11:19:58.472Z,6.85
2018-02-15T11:22:26.836Z,5.88
2018-02-15T11:24:55.221Z,6.19
2018-02-15T11:27:23.604Z,6.74
2018-02-15T11:29:52.099Z,6.36
2018-02-15T11:32:23.418Z,6.73
2018-02-15T11:34:52.084Z,6.64
2018-02-15T11:37:20.477Z,6.33
2018-02-15T11:39:48.838Z,7.01
2018-02-15T11:42:17.203Z,7.40
2018-02-15T11:44:45.685Z,7.19
2018-02-15T11:47:14.154Z,7.47
2018-02-15T11:49:42.613Z,6.92
2018-02-15T11:52:10.976Z,6.33
2018-02-15T11:54:39.363Z,8.15
2018-02-15T11:57:07.734Z,8.83
2018-02-15T11:59:36.525Z,7.93
2018-02-15T12:02:04.902Z,7.52
2018-02-15T12:04:33.294Z,8.15
2018-02-15T12:07:01.786Z,7.79
2018-02-15T12:09:30.185Z,7.15
2018-02-15T12:11:58.633Z,7.40
2018-02-15T12:14:27.003Z,7.26
2018-02-15T12:16:55.416Z,7.14
2018-02-15T12:19:24.493Z,7.21
2018-02-15T12:21:52.903Z,8.20
2018-02-15T12:24:21.330Z,8.03
2018-02-15T12:26:49.706Z,7.84
2018-02-15T12:29:18.095Z,7.83
2018-02-15T12:31:46.490Z,9.19
2018-02-15T12:34:14.989Z,9.69
2018-02-15T12:36:43.393Z,10.19
2018-02-15T12:39:11.749Z,9.56
2018-02-15T12:41:40.189Z,9.05
2018-02-15T12:44:08.555Z,9.55
2018-02-15T12:46:37.258Z,9.42
2018-02-15T12:49:05.666Z,9.54
2018-02-15T12:51:34.045Z,9.58
2018-02-15T12:54:02.502Z,10.55
2018-02-15T12:56:30.868Z,9.08
2018-02-15T12:58:59.224Z,9.04
2018-02-15T13:01:27.602Z,9.26
2018-02-15T13:03:55.972Z,9.73
2018-02-15T13:06:24.442Z,9.59
2018-02-15T13:08:52.875Z,8.43
2018-02-15T13:11:21.348Z,8.65
2018-02-15T13:13:49.736Z,8.06
2018-02-15T13:16:29.915Z,8.78
2018-02-15T13:19:09.961Z,9.00
2018-02-15T13:21:38.333Z,9.28
2018-02-15T13:24:06.780Z,9.18
2018-02-15T13:26:35.164Z,9.14
2018-02-15T13:29:03.536Z,9.25
2018-02-15T13:31:32.006Z,8.30
2018-02-15T13:34:00.409Z,10.00
2018-02-15T13:36:28.838Z,9.29
2018-02-15T13:38:57.199Z,9.51
2018-02-15T13:41:25.559Z,8.56
2018-02-15T13:43:53.916Z,8.73
2018-02-15T13:46:22.273Z,8.31
2018-02-15T13:48:50.642Z,9.20
2018-02-15T13:51:18.981Z,9.15
2018-02-15T13:53:47.421Z,8.30
2018-02-15T13:56:15.794Z,8.16
2018-02-15T13:58:44.175Z,9.35
2018-02-15T14:01:12.551Z,8.52
2018-02-15T14:03:40.920Z,8.42
2018-02-15T14:06:09.357Z,8.38
2018-02-15T14:08:38.786Z,8.61
2018-02-15T14:11:07.156Z,8.67
2018-02-15T14:13:35.547Z,8.80
2018-02-15T14:16:04.144Z,8.96
2018-02-15T14:18:32.604Z,8.31
2018-02-15T14:21:01.079Z,7.57
2018-02-15T14:23:29.473Z,8.67
2018-02-15T14:25:57.906Z,8.80
2018-02-15T14:28:26.266Z,8.37
2018-02-15T14:30:54.722Z,8.94
2018-02-15T14:33:23.093Z,8.96
2018-02-15T14:35:51.455Z,8.44
2018-02-15T14:38:19.896Z,9.00
2018-02-15T14:40:48.324Z,8.89
2018-02-15T14:43:27.389Z,8.96
2018-02-15T14:45:55.867Z,9.52
2018-02-15T14:48:24.243Z,8.07
2018-02-15T14:50:54.430Z,8.61
2018-02-15T14:53:22.905Z,9.02
2018-02-15T14:55:51.363Z,9.43
2018-02-15T14:58:19.737Z,9.57
2018-02-15T15:00:48.130Z,9.31
2018-02-15T15:03:16.495Z,9.60
2018-02-15T15:05:44.871Z,9.17
2018-02-15T15:08:13.311Z,9.43
2018-02-15T15:10:41.678Z,8.40
2018-02-15T15:13:10.183Z,8.86
2018-02-15T15:15:38.554Z,9.32
2018-02-15T15:18:07.023Z,9.79
2018-02-15T15:20:35.494Z,10.13
2018-02-15T15:23:03.884Z,8.95
2018-02-15T15:25:32.290Z,9.45
2018-02-15T15:28:00.770Z,9.53
2018-02-15T15:30:29.246Z,10.09
2018-02-15T15:32:57.598Z,10.69
2018-02-15T15:35:25.996Z,9.99
2018-02-15T15:37:54.374Z,9.51
2018-02-15T15:40:22.722Z,10.00
2018-02-15T15:42:51.303Z,9.33
2018-02-15T15:45:19.678Z,8.64
2018-02-15T15:47:48.155Z,9.35
2018-02-15T15:50:16.563Z,9.00
2018-02-15T15:52:45.033Z,9.91
2018-02-15T15:55:13.540Z,9.38
2018-02-15T15:57:41.903Z,8.95
2018-02-15T16:00:10.265Z,9.58
2018-02-15T16:02:38.650Z,9.26
2018-02-15T16:05:07.127Z,8.41
2018-02-15T16:07:35.588Z,9.81
2018-02-15T16:10:03.948Z,8.69
2018-02-15T16:12:32.415Z,8.63
2018-02-15T16:15:00.784Z,9.96
2018-02-15T16:17:29.234Z,9.18
2018-02-15T16:19:57.695Z,9.22
2018-02-15T16:22:27.129Z,9.02
2018-02-15T16:24:56.536Z,8.66
2018-02-15T16:27:25.282Z,9.01
2018-02-15T16:29:53.688Z,8.75
2018-02-15T16:32:22.039Z,8.95
2018-02-15T16:34:50.439Z,9.44
2018-02-15T16:37:18.923Z,8.92
2018-02-15T16:39:47.280Z,9.20
2018-02-15T16:42:15.803Z,9.71
2018-02-15T16:44:44.201Z,9.53
2018-02-15T16:47:12.567Z,8.73
2018-02-15T16:49:40.918Z,8.26
2018-02-15T16:52:09.307Z,8.45
2018-02-15T16:54:37.743Z,8.58
2018-02-15T16:57:06.090Z,8.20
2018-02-15T16:59:34.455Z,9.11
2018-02-15T17:02:03.209Z,9.32
2018-02-15T17:04:31.718Z,8.99
2018-02-15T17:07:00.200Z,9.38
2018-02-15T17:09:28.676Z,9.13
2018-02-15T17:11:57.045Z,9.40
2018-02-15T17:14:25.412Z,9.63
2018-02-15T17:16:53.799Z,9.65
2018-02-15T17:19:22.338Z,9.34
2018-02-15T17:21:50.802Z,9.05
2018-02-15T17:24:19.197Z,9.22
2018-02-15T17:26:47.693Z,9.02
2018-02-15T17:29:16.079Z,8.76
2018-02-15T17:31:44.630Z,8.85
2018-02-15T17:34:13.938Z,8.34
2018-02-15T17:36:42.332Z,9.13
2018-02-15T17:39:10.693Z,9.33
2018-02-15T17:41:39.068Z,8.69
2018-02-15T17:44:07.528Z,8.60
2018-02-15T17:46:35.878Z,8.68
2018-02-15T17:49:04.235Z,8.83
2018-02-15T17:51:32.585Z,9.13
2018-02-15T17:54:00.948Z,9.63
2018-02-15T17:56:29.388Z,9.69
2018-02-15T17:58:57.869Z,9.30
2018-02-15T18:01:26.227Z,9.70
2018-02-15T18:03:54.752Z,9.58
2018-02-15T18:06:23.108Z,10.04
2018-02-15T18:08:52.380Z,10.27
2018-02-15T18:11:20.776Z,9.69
2018-02-15T18:13:49.165Z,9.81
2018-02-15T18:16:17.560Z,9.73
2018-02-15T18:18:45.938Z,9.60
2018-02-15T18:21:14.489Z,10.73
2018-02-15T18:23:42.872Z,10.95
2018-02-15T18:26:11.234Z,10.32
2018-02-15T18:28:39.626Z,10.78
2018-02-15T18:31:07.993Z,10.08
2018-02-15T18:33:36.504Z,9.60
2018-02-15T18:36:04.865Z,9.14
2018-02-15T18:38:33.243Z,9.09
2018-02-15T18:41:01.713Z,9.03
2018-02-15T18:43:30.403Z,9.23
2018-02-15T18:45:58.956Z,9.56
2018-02-15T18:48:27.318Z,9.94
2018-02-15T18:50:55.755Z,10.53
2018-02-15T18:53:24.116Z,9.03
2018-02-15T18:55:52.485Z,10.40
2018-02-15T18:58:21.269Z,10.42
2018-02-15T19:00:49.701Z,10.62
2018-02-15T19:03:18.084Z,10.79
2018-02-15T19:05:46.467Z,10.72
2018-02-15T19:08:14.876Z,10.99
2018-02-15T19:10:43.543Z,10.90
2018-02-15T19:16:07.207Z,10.39
2018-02-15T19:18:35.572Z,10.85
2018-02-15T19:21:04.044Z,10.08
2018-02-15T19:23:32.510Z,9.18
2018-02-15T19:26:00.955Z,9.56
2018-02-15T19:28:29.330Z,9.59
2018-02-15T19:30:57.715Z,9.39
2018-02-15T19:33:26.209Z,9.49
2018-02-15T19:35:54.772Z,9.75
2018-02-15T19:38:23.161Z,9.96
2018-02-15T19:40:51.576Z,9.91
2018-02-15T19:43:19.974Z,9.71
2018-02-15T19:45:48.481Z,9.31
2018-02-15T19:48:16.854Z,9.25
2018-02-15T19:50:45.270Z,8.76
2018-02-15T19:53:13.716Z,9.56
2018-02-15T19:55:42.206Z,9.29
2018-02-15T19:58:10.713Z,9.52
2018-02-15T20:00:39.110Z,9.33
2018-02-15T20:03:07.532Z,10.17
2018-02-15T20:05:35.940Z,9.40
2018-02-15T20:08:04.429Z,9.52
2018-02-15T20:10:32.946Z,9.63
2018-02-15T20:13:01.335Z,9.81
2018-02-15T20:18:27.009Z,9.37
2018-02-15T20:20:55.479Z,9.57
2018-02-15T20:23:23.920Z,9.21
2018-02-15T20:25:58.080Z,10.06
2018-02-15T20:28:26.971Z,9.56
2018-02-15T20:30:55.420Z,10.15
2018-02-15T20:33:23.810Z,10.93
2018-02-15T20:35:52.199Z,10.23
2018-02-15T20:38:26.371Z,10.79
2018-02-15T20:40:54.787Z,10.87
2018-02-15T20:43:23.189Z,10.81
2018-02-15T20:45:51.598Z,11.17
2018-02-15T20:48:20.134Z,11.80
2018-02-15T20:50:54.374Z,10.99
2018-02-15T20:53:28.527Z,11.00
2018-02-15T20:55:56.937Z,11.40
2018-02-15T20:58:25.466Z,10.74
2018-02-15T21:00:53.952Z,11.28
2018-02-15T21:03:22.389Z,11.00
2018-02-15T21:05:50.808Z,10.00
2018-02-15T21:08:19.298Z,10.30
2018-02-15T21:10:47.718Z,9.18
2018-02-15T21:13:16.186Z,9.40
2018-02-15T21:15:44.598Z,10.69
2018-02-15T21:18:13.034Z,11.41
2018-02-15T21:20:41.468Z,10.63
2018-02-15T21:23:09.887Z,10.38
2018-02-15T21:25:38.355Z,10.26
2018-02-15T21:28:06.764Z,10.40
2018-02-15T21:30:35.307Z,11.46
2018-02-15T21:33:03.712Z,10.03
2018-02-15T21:35:32.284Z,10.66
2018-02-15T21:38:00.691Z,10.13
2018-02-15T21:40:29.127Z,10.74
2018-02-15T21:42:57.545Z,10.27
2018-02-15T21:45:25.922Z,11.00
2018-02-15T21:47:54.513Z,10.44
2018-02-15T21:50:23.049Z,10.26
2018-02-15T21:52:51.480Z,10.48
2018-02-15T21:55:20.264Z,10.39
2018-02-15T21:57:51.398Z,10.66
2018-02-15T22:00:20.031Z,9.83
2018-02-15T22:02:48.463Z,9.36
2018-02-15T22:05:16.971Z,9.61
2018-02-15T22:07:45.435Z,10.18
2018-02-15T22:10:13.886Z,10.18
2018-02-15T22:12:42.347Z,9.94
2018-02-15T22:15:10.966Z,10.20
2018-02-15T22:17:39.453Z,10.00
2018-02-15T22:20:07.957Z,9.16
2018-02-15T22:22:36.675Z,9.01
2018-02-15T22:25:05.148Z,9.91
2018-02-15T22:27:33.927Z,9.22
2018-02-15T22:30:02.384Z,10.13
2018-02-15T22:32:30.887Z,10.06
2018-02-15T22:34:59.342Z,9.81
2018-02-15T22:37:27.769Z,9.41
2018-02-15T22:39:56.155Z,9.90
2018-02-15T22:42:24.611Z,9.50
2018-02-15T22:44:53.020Z,9.50
2018-02-15T22:47:21.415Z,10.10
2018-02-15T22:49:49.805Z,10.38
2018-02-15T22:52:18.291Z,10.16
2018-02-15T22:54:46.837Z,9.69
2018-02-15T22:57:15.249Z,10.02
2018-02-15T22:59:44.248Z,10.52
2018-02-15T23:02:13.466Z,10.84
2018-02-15T23:04:41.873Z,10.86
2018-02-15T23:07:10.363Z,10.17
2018-02-15T23:09:38.761Z,10.61
2018-02-15T23:12:07.139Z,10.53
2018-02-15T23:14:36.444Z,10.56
2018-02-15T23:17:04.852Z,9.70
2018-02-15T23:19:33.263Z,9.98
2018-02-15T23:22:01.687Z,10.04
2018-02-15T23:24:30.143Z,10.50
2018-02-15T23:26:58.544Z,10.97
2018-02-15T23:29:26.948Z,10.51
2018-02-15T23:31:55.340Z,9.51
2018-02-15T23:34:23.702Z,9.68
2018-02-15T23:36:52.150Z,9.95
2018-02-15T23:39:20.518Z,9.75
2018-02-15T23:41:49.007Z,10.51
2018-02-15T23:44:17.382Z,10.18
2018-02-15T23:46:45.772Z,9.98
2018-02-15T23:49:14.191Z,9.34
2018-02-15T23:51:42.602Z,9.31
2018-02-15T23:54:11.060Z,10.32
2018-02-15T23:56:39.543Z,10.26
2018-02-15T23:59:08.011Z,10.53
